createdAt,value
2019-04-05T00:00:18.418Z,91.20
2019-04-05T00:02:48.336Z,91.40
2019-04-05T00:05:18.155Z,91.50
2019-04-05T00:07:47.988Z,91.80
2019-04-05T00:10:17.844Z,92.00
2019-04-05T00:12:47.681Z,92.00
2019-04-05T00:15:17.459Z,92.10
2019-04-05T00:17:51.163Z,92.30
2019-04-05T00:20:20.924Z,92.40
2019-04-05T00:22:50.799Z,92.70
2019-04-05T00:25:20.548Z,92.70
2019-04-05T00:27:50.449Z,92.60
2019-04-05T00:30:20.512Z,92.90
2019-04-05T00:32:50.261Z,93.00
2019-04-05T00:35:20.005Z,93.00
2019-04-05T00:37:49.948Z,93.50
2019-04-05T00:40:19.755Z,93.30
2019-04-05T00:42:49.746Z,93.50
2019-04-05T00:45:28.069Z,93.70
2019-04-05T00:47:51.027Z,93.80
2019-04-05T00:50:21.051Z,93.90
2019-04-05T00:52:52.131Z,93.60
2019-04-05T00:55:22.053Z,93.60
2019-04-05T00:57:51.912Z,93.80
2019-04-05T01:00:21.891Z,94.00
2019-04-05T01:02:52.000Z,94.10
2019-04-05T01:05:21.753Z,94.20
2019-04-05T01:07:51.605Z,94.20
2019-04-05T01:10:22.275Z,94.10
2019-04-05T01:12:52.160Z,94.20
2019-04-05T01:15:22.118Z,94.20
2019-04-05T01:17:52.998Z,94.40
2019-04-05T01:20:25.037Z,94.50
2019-04-05T01:22:55.571Z,94.70
2019-04-05T01:25:27.617Z,94.80
2019-04-05T01:27:57.829Z,94.90
2019-04-05T01:30:27.678Z,95.10
2019-04-05T01:32:57.612Z,94.80
2019-04-05T01:35:27.435Z,94.80
2019-04-05T01:37:57.937Z,94.80
2019-04-05T01:40:30.520Z,94.90
2019-04-05T01:43:01.090Z,95.00
2019-04-05T01:45:30.998Z,95.20
2019-04-05T01:48:01.024Z,95.30
2019-04-05T01:50:31.170Z,95.40
2019-04-05T01:53:01.537Z,95.30
2019-04-05T01:55:34.118Z,95.10
2019-04-05T01:58:05.193Z,95.00
2019-04-05T02:00:35.102Z,95.10
2019-04-05T02:03:04.977Z,95.40
2019-04-05T02:05:34.859Z,95.50
2019-04-05T02:08:04.987Z,95.60
2019-04-05T02:10:34.906Z,95.60
2019-04-05T02:13:05.184Z,95.80
2019-04-05T02:15:36.466Z,95.70
2019-04-05T02:18:06.451Z,95.70
2019-04-05T02:20:36.399Z,95.90
2019-04-05T02:23:06.457Z,96.00
2019-04-05T02:25:36.302Z,96.10
2019-04-05T02:28:09.342Z,96.20
2019-04-05T02:30:39.304Z,96.10
2019-04-05T02:33:09.176Z,96.10
2019-04-05T02:35:39.302Z,96.40
2019-04-05T02:38:09.217Z,96.50
2019-04-05T02:40:40.968Z,96.60
2019-04-05T02:43:14.822Z,96.50
2019-04-05T02:45:46.973Z,96.60
2019-04-05T02:48:18.345Z,96.80
2019-04-05T02:50:51.681Z,96.90
2019-04-05T02:53:21.755Z,97.10
2019-04-05T02:55:52.256Z,97.30
2019-04-05T02:58:22.930Z,97.60
2019-04-05T03:00:53.455Z,97.70
2019-04-05T03:03:23.357Z,97.90
2019-04-05T03:05:54.261Z,97.90
2019-04-05T03:08:24.157Z,97.90
2019-04-05T03:11:04.335Z,98.00
2019-04-05T03:13:38.015Z,98.00
2019-04-05T03:16:13.431Z,98.30
2019-04-05T03:18:47.875Z,98.50
2019-04-05T03:21:20.443Z,98.60
2019-04-05T03:23:52.241Z,98.90
2019-04-05T03:26:25.321Z,98.90
2019-04-05T03:28:58.176Z,99.00
2019-04-05T03:31:28.377Z,99.00
2019-04-05T03:33:58.618Z,99.30
2019-04-05T03:36:30.210Z,99.30
2019-04-05T03:39:00.208Z,99.50
2019-04-05T03:41:33.213Z,99.60
2019-04-05T03:44:03.537Z,99.80
2019-04-05T03:46:33.821Z,99.90
2019-04-05T03:49:05.370Z,99.90
2019-04-05T03:51:35.874Z,99.90
2019-04-05T03:54:06.300Z,99.90
2019-04-05T03:56:38.271Z,99.90
2019-04-05T03:59:08.444Z,99.90
2019-04-05T04:01:38.379Z,99.90
2019-04-05T04:04:08.442Z,99.90
2019-04-05T04:06:38.338Z,99.90
2019-04-05T04:09:08.268Z,99.90
2019-04-05T04:11:38.496Z,99.90
2019-04-05T04:14:13.189Z,99.90
2019-04-05T04:16:43.448Z,99.90
2019-04-05T04:19:13.533Z,99.90
2019-04-05T04:22:23.349Z,99.90
2019-04-05T04:24:53.463Z,99.90
2019-04-05T04:27:23.676Z,99.90
2019-04-05T04:29:53.594Z,99.90
2019-04-05T04:32:24.548Z,99.90
2019-04-05T04:34:55.166Z,99.90
2019-04-05T04:37:25.830Z,99.90
2019-04-05T04:39:55.882Z,99.90
2019-04-05T04:42:26.812Z,99.90
2019-04-05T04:45:11.335Z,99.90
2019-04-05T04:47:32.150Z,99.90
2019-04-05T04:50:03.536Z,99.90
2019-04-05T04:52:33.952Z,99.90
2019-04-05T04:55:03.860Z,99.90
2019-04-05T04:57:33.837Z,99.90
2019-04-05T05:00:04.298Z,99.90
2019-04-05T05:02:34.814Z,99.90
2019-04-05T05:05:05.618Z,99.90
2019-04-05T05:07:36.278Z,99.90
2019-04-05T05:10:06.579Z,99.90
2019-04-05T05:12:36.709Z,99.90
2019-04-05T05:15:07.085Z,99.90
2019-04-05T05:17:38.848Z,99.90
2019-04-05T05:20:09.110Z,99.90
2019-04-05T05:22:39.434Z,99.90
2019-04-05T05:25:11.065Z,99.90
2019-04-05T05:27:41.467Z,99.90
2019-04-05T05:30:12.541Z,99.90
2019-04-05T05:32:42.550Z,99.90
2019-04-05T05:35:13.410Z,99.90
2019-04-05T05:37:43.539Z,99.90
2019-04-05T05:40:14.135Z,99.90
2019-04-05T05:42:44.256Z,99.90
2019-04-05T05:45:14.236Z,99.90
2019-04-05T05:47:51.828Z,99.90
2019-04-05T05:50:15.995Z,99.60
2019-04-05T05:52:49.227Z,99.10
2019-04-05T05:55:19.031Z,98.80
2019-04-05T05:57:48.953Z,98.80
2019-04-05T06:00:21.473Z,98.50
2019-04-05T06:02:51.300Z,98.40
2019-04-05T06:05:22.645Z,98.00
2019-04-05T06:07:52.622Z,97.30
2019-04-05T06:10:22.362Z,97.00
2019-04-05T06:12:52.289Z,96.50
2019-04-05T06:15:22.465Z,96.10
2019-04-05T06:18:04.135Z,95.00
2019-04-05T06:20:24.280Z,94.50
2019-04-05T06:22:54.141Z,94.20
2019-04-05T06:25:23.921Z,93.40
2019-04-05T06:27:53.679Z,92.90
2019-04-05T06:30:23.423Z,92.60
2019-04-05T06:32:53.190Z,92.60
2019-04-05T06:35:22.932Z,93.00
2019-04-05T06:37:53.154Z,93.40
2019-04-05T06:40:22.957Z,94.10
2019-04-05T06:42:52.701Z,94.90
2019-04-05T06:45:22.586Z,95.40
2019-04-05T06:47:52.673Z,96.10
2019-04-05T06:50:22.525Z,96.60
2019-04-05T06:52:52.781Z,97.10
2019-04-05T06:55:22.535Z,97.80
2019-04-05T06:57:52.264Z,97.70
2019-04-05T07:00:30.099Z,97.90
2019-04-05T07:03:00.141Z,97.80
2019-04-05T07:05:29.972Z,97.90
2019-04-05T07:07:59.720Z,98.20
2019-04-05T07:10:29.736Z,98.20
2019-04-05T07:12:59.796Z,98.90
2019-04-05T07:15:29.691Z,99.90
2019-04-05T07:17:59.599Z,99.90
2019-04-05T07:20:29.341Z,99.90
2019-04-05T07:22:59.101Z,99.90
2019-04-05T07:25:29.502Z,99.90
2019-04-05T07:27:59.605Z,99.90
2019-04-05T07:30:29.726Z,99.90
2019-04-05T07:32:59.602Z,99.90
2019-04-05T07:35:33.664Z,99.90
2019-04-05T07:38:01.000Z,99.90
2019-04-05T07:40:30.899Z,99.90
2019-04-05T07:43:00.703Z,99.90
2019-04-05T07:45:30.583Z,99.90
2019-04-05T07:48:00.376Z,99.90
2019-04-05T07:50:30.282Z,99.90
2019-04-05T07:53:00.055Z,99.90
2019-04-05T07:55:30.917Z,99.90
2019-04-05T07:58:00.943Z,99.90
2019-04-05T08:00:51.643Z,99.90
2019-04-05T08:03:22.539Z,99.90
2019-04-05T08:05:53.462Z,99.90
2019-04-05T08:08:30.978Z,99.90
2019-04-05T08:11:01.004Z,99.90
2019-04-05T08:13:31.698Z,99.90
2019-04-05T08:16:02.497Z,99.90
2019-04-05T08:18:32.290Z,99.90
2019-04-05T08:21:02.188Z,99.90
2019-04-05T08:23:32.121Z,99.90
2019-04-05T08:26:02.169Z,99.90
2019-04-05T08:28:32.179Z,99.90
2019-04-05T08:31:02.117Z,99.90
2019-04-05T08:33:31.888Z,99.90
2019-04-05T08:36:01.748Z,99.90
2019-04-05T08:38:31.637Z,99.90
2019-04-05T08:41:01.503Z,99.90
2019-04-05T08:43:31.376Z,99.90
2019-04-05T08:46:01.316Z,99.90
2019-04-05T08:48:31.317Z,99.90
2019-04-05T08:51:01.138Z,99.90
2019-04-05T08:53:30.995Z,99.90
2019-04-05T08:56:00.786Z,99.90
2019-04-05T08:58:33.548Z,99.90
2019-04-05T09:01:04.204Z,99.90
2019-04-05T09:03:33.972Z,99.90
2019-04-05T09:06:03.754Z,99.90
2019-04-05T09:08:33.611Z,99.90
2019-04-05T09:11:03.714Z,99.90
2019-04-05T09:13:33.555Z,99.90
2019-04-05T09:16:03.491Z,99.90
2019-04-05T09:18:33.294Z,99.90
2019-04-05T09:21:03.131Z,99.90
2019-04-05T09:23:33.055Z,99.90
2019-04-05T09:26:03.239Z,99.90
2019-04-05T09:28:33.119Z,99.90
2019-04-05T09:31:03.071Z,99.90
2019-04-05T09:33:32.851Z,99.90
2019-04-05T09:36:02.629Z,99.90
2019-04-05T09:38:32.795Z,99.90
2019-04-05T09:41:02.671Z,99.90
2019-04-05T09:43:32.712Z,99.90
2019-04-05T09:46:02.497Z,99.90
2019-04-05T09:48:32.325Z,99.90
2019-04-05T09:51:02.216Z,99.90
2019-04-05T09:53:32.891Z,99.90
2019-04-05T09:56:03.001Z,99.90
2019-04-05T09:58:32.843Z,99.90
2019-04-05T10:01:02.749Z,99.90
2019-04-05T10:03:32.577Z,99.90
2019-04-05T10:06:02.369Z,99.90
2019-04-05T10:08:32.330Z,99.90
2019-04-05T10:11:02.423Z,99.90
2019-04-05T10:13:32.257Z,99.90
2019-04-05T10:16:02.212Z,99.90
2019-04-05T10:18:32.100Z,99.90
2019-04-05T10:21:01.949Z,99.90
2019-04-05T10:23:31.924Z,99.90
2019-04-05T10:26:01.736Z,99.90
2019-04-05T10:28:31.614Z,99.90
2019-04-05T10:31:01.423Z,99.90
2019-04-05T10:33:31.218Z,99.90
2019-04-05T10:36:01.017Z,99.90
2019-04-05T10:38:32.434Z,99.90
2019-04-05T10:41:02.654Z,99.90
2019-04-05T10:43:32.564Z,99.90
2019-04-05T10:46:03.769Z,99.90
2019-04-05T10:48:35.431Z,99.90
2019-04-05T10:51:05.428Z,99.90
2019-04-05T10:53:35.287Z,99.90
2019-04-05T10:56:05.172Z,99.90
2019-04-05T10:58:34.959Z,99.90
2019-04-05T11:01:04.990Z,99.90
2019-04-05T11:03:34.827Z,99.90
2019-04-05T11:06:04.726Z,99.90
2019-04-05T11:08:36.155Z,99.90
2019-04-05T11:11:06.070Z,99.90
2019-04-05T11:13:36.042Z,99.90
2019-04-05T11:16:05.950Z,99.90
2019-04-05T11:18:35.817Z,99.90
2019-04-05T11:21:05.637Z,99.90
2019-04-05T11:23:35.403Z,99.90
2019-04-05T11:26:05.295Z,99.90
2019-04-05T11:28:35.092Z,99.90
2019-04-05T11:31:04.981Z,99.90
2019-04-05T11:33:34.936Z,99.90
2019-04-05T11:36:04.839Z,99.90
2019-04-05T11:38:34.926Z,99.90
2019-04-05T11:41:04.773Z,99.90
2019-04-05T11:43:35.863Z,99.90
2019-04-05T11:46:05.693Z,99.90
2019-04-05T11:48:36.395Z,99.90
2019-04-05T11:51:06.244Z,99.90
2019-04-05T11:53:36.055Z,99.90
2019-04-05T11:56:14.548Z,99.90
2019-04-05T11:58:37.781Z,99.90
2019-04-05T12:01:15.686Z,99.90
2019-04-05T12:03:45.498Z,99.90
2019-04-05T12:06:15.267Z,99.90
2019-04-05T12:08:45.148Z,99.20
2019-04-05T12:11:14.979Z,98.90
2019-04-05T12:13:47.535Z,99.00
2019-04-05T12:16:16.273Z,99.00
2019-04-05T12:18:46.004Z,98.70
2019-04-05T12:21:15.716Z,98.70
2019-04-05T12:23:46.991Z,99.40
2019-04-05T12:26:16.832Z,99.60
2019-04-05T12:28:46.614Z,99.10
2019-04-05T12:31:16.788Z,99.30
2019-04-05T12:33:46.974Z,99.10
2019-04-05T12:36:16.967Z,99.00
2019-04-05T12:38:46.799Z,98.40
2019-04-05T12:41:18.271Z,98.30
2019-04-05T12:43:50.770Z,97.50
2019-04-05T12:46:19.672Z,98.00
2019-04-05T12:48:49.595Z,97.80
2019-04-05T12:51:19.334Z,97.50
2019-04-05T12:53:49.065Z,98.00
2019-04-05T12:56:18.818Z,98.50
2019-04-05T12:58:48.588Z,99.10
2019-04-05T13:01:18.440Z,99.20
2019-04-05T13:03:51.098Z,99.20
2019-04-05T13:06:21.437Z,99.00
2019-04-05T13:08:51.521Z,99.00
2019-04-05T13:11:21.583Z,99.50
2019-04-05T13:13:54.347Z,99.80
2019-04-05T13:16:24.571Z,99.50
2019-04-05T13:18:54.281Z,99.70
2019-04-05T13:21:27.635Z,99.70
2019-04-05T13:23:55.452Z,99.80
2019-04-05T13:26:26.509Z,99.70
2019-04-05T13:28:56.526Z,99.90
2019-04-05T13:31:26.307Z,99.90
2019-04-05T13:33:57.963Z,99.60
2019-04-05T13:36:27.855Z,99.40
2019-04-05T13:39:00.369Z,99.90
2019-04-05T13:41:31.378Z,99.90
2019-04-05T13:44:01.657Z,99.90
2019-04-05T13:46:32.259Z,99.90
2019-04-05T13:49:01.963Z,99.80
2019-04-05T13:51:32.069Z,99.90
2019-04-05T13:54:01.983Z,99.90
2019-04-05T13:56:31.875Z,99.50
2019-04-05T13:59:01.684Z,99.70
2019-04-05T14:01:31.546Z,99.50
2019-04-05T14:04:01.481Z,99.60
2019-04-05T14:06:31.348Z,99.40
2019-04-05T14:09:01.149Z,99.30
2019-04-05T14:11:33.792Z,99.70
2019-04-05T14:14:05.422Z,99.60
2019-04-05T14:16:35.230Z,99.60
2019-04-05T14:19:05.095Z,99.80
2019-04-05T14:21:40.801Z,99.90
2019-04-05T14:24:07.983Z,99.90
2019-04-05T14:26:37.695Z,99.90
2019-04-05T14:29:07.476Z,99.90
2019-04-05T14:31:37.216Z,99.90
2019-04-05T14:34:06.954Z,99.90
2019-04-05T14:36:36.651Z,99.90
2019-04-05T14:39:09.553Z,99.90
2019-04-05T14:41:39.277Z,99.90
2019-04-05T14:44:09.098Z,99.90
2019-04-05T14:46:38.921Z,99.90
2019-04-05T14:49:08.655Z,99.60
2019-04-05T14:51:38.540Z,99.70
2019-04-05T14:54:09.999Z,99.60
2019-04-05T14:56:39.870Z,99.50
2019-04-05T14:59:09.713Z,99.30
2019-04-05T15:01:39.591Z,99.30
2019-04-05T15:04:11.883Z,99.30
2019-04-05T15:06:40.926Z,98.90
2019-04-05T15:09:10.810Z,98.80
2019-04-05T15:11:40.751Z,98.70
2019-04-05T15:14:10.498Z,98.50
2019-04-05T15:16:43.410Z,98.30
2019-04-05T15:19:13.267Z,98.20
2019-04-05T15:21:44.966Z,98.30
2019-04-05T15:24:16.762Z,98.10
2019-04-05T15:34:15.493Z,98.20
2019-04-05T15:36:45.283Z,98.50
2019-04-05T15:39:15.242Z,98.40
2019-04-05T15:41:44.941Z,98.30
2019-04-05T15:44:14.769Z,98.50
2019-04-05T15:46:44.692Z,98.40
2019-04-05T15:49:14.423Z,98.00
2019-04-05T15:51:44.274Z,98.10
2019-04-05T15:54:14.008Z,98.30
2019-04-05T15:56:43.791Z,98.50
2019-04-05T15:59:13.530Z,98.80
2019-04-05T16:01:43.483Z,98.60
2019-04-05T16:04:13.385Z,98.60
2019-04-05T16:06:43.150Z,98.90
2019-04-05T16:09:16.977Z,98.60
2019-04-05T16:11:46.734Z,98.60
2019-04-05T16:14:16.453Z,98.90
2019-04-05T16:16:46.178Z,98.90
2019-04-05T16:19:15.918Z,98.90
2019-04-05T16:21:45.694Z,99.10
2019-04-05T16:24:15.433Z,99.00
2019-04-05T16:26:45.260Z,99.50
2019-04-05T16:29:16.046Z,99.50
2019-04-05T16:31:46.974Z,99.50
2019-04-05T16:34:16.912Z,99.70
2019-04-05T16:36:46.723Z,99.80
2019-04-05T16:39:18.674Z,99.90
2019-04-05T16:41:48.387Z,99.90
2019-04-05T16:44:18.156Z,99.90
2019-04-05T16:46:47.893Z,99.90
2019-04-05T16:49:17.666Z,99.90
2019-04-05T16:51:47.457Z,99.90
2019-04-05T16:54:17.216Z,99.90
2019-04-05T16:56:47.001Z,99.90
2019-04-05T16:59:16.830Z,99.90
2019-04-05T17:01:47.566Z,99.90
2019-04-05T17:04:17.303Z,99.90
2019-04-05T17:06:47.032Z,99.90
2019-04-05T17:09:16.729Z,99.90
2019-04-05T17:11:46.510Z,99.90
2019-04-05T17:14:16.316Z,99.90
2019-04-05T17:16:46.125Z,99.90
2019-04-05T17:19:16.012Z,99.90
2019-04-05T17:21:45.829Z,99.90
2019-04-05T17:24:15.661Z,99.90
2019-04-05T17:26:45.531Z,99.90
2019-04-05T17:29:16.493Z,99.90
2019-04-05T17:31:46.543Z,99.90
2019-04-05T17:34:16.364Z,99.90
2019-04-05T17:36:46.165Z,99.90
2019-04-05T17:39:15.951Z,99.90
2019-04-05T17:41:45.831Z,99.90
2019-04-05T17:44:15.549Z,99.90
2019-04-05T17:46:45.338Z,99.90
2019-04-05T17:49:15.039Z,99.90
2019-04-05T17:51:44.978Z,99.90
2019-04-05T17:54:14.840Z,99.90
2019-04-05T17:56:44.805Z,99.90
2019-04-05T17:59:14.820Z,99.90
2019-04-05T18:01:44.743Z,99.90
2019-04-05T18:04:14.476Z,99.90
2019-04-05T18:06:44.341Z,99.90
2019-04-05T18:09:14.049Z,99.90
2019-04-05T18:11:44.028Z,99.90
2019-04-05T18:14:13.905Z,99.90
2019-04-05T18:16:43.617Z,99.90
2019-04-05T18:19:13.386Z,99.90
2019-04-05T18:21:43.329Z,99.90
2019-04-05T18:24:13.222Z,99.90
2019-04-05T18:26:43.093Z,99.90
2019-04-05T18:29:12.886Z,99.90
2019-04-05T18:31:42.790Z,99.90
2019-04-05T18:34:12.605Z,99.90
2019-04-05T18:36:42.326Z,99.90
2019-04-05T18:39:12.565Z,99.90
2019-04-05T18:41:42.300Z,99.90
2019-04-05T18:44:12.286Z,99.90
2019-04-05T18:46:42.180Z,99.90
2019-04-05T18:49:12.070Z,99.90
2019-04-05T18:51:41.866Z,99.90
2019-04-05T18:54:11.660Z,99.90
2019-04-05T18:56:41.566Z,99.90
2019-04-05T18:59:11.317Z,99.90
2019-04-05T19:01:41.139Z,99.90
2019-04-05T19:04:10.944Z,99.90
2019-04-05T19:06:41.698Z,99.90
2019-04-05T19:09:12.071Z,99.90
2019-04-05T19:11:42.322Z,99.90
2019-04-05T19:14:12.127Z,99.90
2019-04-05T19:16:41.910Z,99.90
2019-04-05T19:19:18.035Z,99.90
2019-04-05T19:21:48.015Z,99.90
2019-04-05T19:24:19.981Z,99.90
2019-04-05T19:26:49.782Z,99.90
2019-04-05T19:29:19.631Z,99.90
2019-04-05T19:49:30.873Z,99.90
2019-04-05T19:52:00.787Z,99.90
2019-04-05T19:54:30.606Z,99.90
2019-04-05T19:57:00.460Z,99.90
2019-04-05T19:59:30.356Z,99.90
2019-04-05T20:02:00.092Z,99.90
2019-04-05T20:04:29.884Z,99.90
2019-04-05T20:06:59.629Z,99.90
2019-04-05T20:09:29.495Z,99.90
2019-04-05T20:11:59.555Z,99.90
2019-04-05T20:14:29.300Z,99.90
2019-04-05T20:16:59.123Z,99.90
2019-04-05T20:19:28.972Z,99.90
2019-04-05T20:21:59.034Z,99.90
2019-04-05T20:24:28.780Z,99.90
2019-04-05T20:26:58.757Z,99.90
2019-04-05T20:29:28.543Z,99.90
2019-04-05T20:31:58.328Z,99.90
2019-04-05T20:34:28.127Z,99.90
2019-04-05T20:36:57.904Z,99.90
2019-04-05T20:39:28.940Z,99.90
2019-04-05T20:41:58.693Z,99.90
2019-04-05T20:44:28.505Z,99.90
2019-04-05T20:46:58.250Z,99.90
2019-04-05T20:49:28.036Z,99.90
2019-04-05T20:51:57.834Z,99.90
2019-04-05T20:54:27.923Z,99.90
2019-04-05T20:56:57.695Z,99.90
2019-04-05T20:59:27.479Z,99.90
2019-04-05T21:01:57.211Z,99.90
2019-04-05T21:04:27.012Z,99.90
2019-04-05T21:06:56.774Z,99.90
2019-04-05T21:09:26.568Z,99.90
2019-04-05T21:11:56.395Z,99.90
2019-04-05T21:14:26.262Z,99.90
2019-04-05T21:16:57.150Z,99.90
2019-04-05T21:19:26.953Z,99.90
2019-04-05T21:21:56.696Z,99.90
2019-04-05T21:24:35.744Z,99.90
2019-04-05T21:26:57.918Z,99.90
2019-04-05T21:29:27.696Z,99.90
2019-04-05T21:31:57.428Z,99.90
2019-04-05T21:34:27.166Z,99.90
2019-04-05T21:36:57.222Z,99.90
2019-04-05T21:39:26.987Z,99.90
2019-04-05T21:41:56.736Z,99.90
2019-04-05T21:44:26.560Z,99.90
2019-04-05T21:46:56.331Z,99.90
2019-04-05T21:49:29.350Z,99.90
2019-04-05T21:51:59.181Z,99.90
2019-04-05T21:54:29.017Z,99.90
2019-04-05T21:56:59.186Z,99.90
2019-04-05T21:59:28.928Z,99.90
2019-04-05T22:01:58.892Z,99.90
2019-04-05T22:04:28.658Z,99.90
2019-04-05T22:06:58.387Z,99.90
2019-04-05T22:09:29.155Z,99.90
2019-04-05T22:11:58.908Z,99.90
2019-04-05T22:14:28.712Z,99.90
2019-04-05T22:16:58.454Z,99.90
2019-04-05T22:19:28.238Z,99.90
2019-04-05T22:21:58.026Z,99.90
2019-04-05T22:24:27.919Z,99.90
2019-04-05T22:26:57.740Z,99.90
2019-04-05T22:29:27.541Z,99.90
2019-04-05T22:31:57.433Z,99.90
2019-04-05T22:34:27.306Z,99.90
2019-04-05T22:36:57.086Z,99.90
2019-04-05T22:39:26.892Z,99.90
2019-04-05T22:41:56.724Z,99.90
2019-04-05T22:44:37.450Z,99.90
2019-04-05T22:46:58.092Z,99.90
2019-04-05T22:49:27.862Z,99.90
2019-04-05T22:51:57.824Z,99.90
2019-04-05T22:54:27.749Z,99.90
2019-04-05T22:56:57.638Z,99.90
2019-04-05T22:59:27.462Z,99.90
2019-04-05T23:01:57.377Z,99.90
2019-04-05T23:04:27.186Z,99.90
2019-04-05T23:06:57.129Z,99.90
2019-04-05T23:09:27.081Z,99.90
2019-04-05T23:11:57.070Z,99.90
2019-04-05T23:14:26.836Z,99.90
2019-04-05T23:16:56.698Z,99.90
2019-04-05T23:19:28.250Z,99.90
2019-04-05T23:21:58.117Z,99.90
2019-04-05T23:24:28.070Z,99.90
2019-04-05T23:26:57.938Z,99.90
2019-04-05T23:29:27.798Z,99.90
2019-04-05T23:31:57.625Z,99.90
2019-04-05T23:34:27.470Z,99.90
2019-04-05T23:36:57.347Z,99.90
2019-04-05T23:39:27.259Z,99.90
2019-04-05T23:41:57.095Z,99.90
2019-04-05T23:44:27.087Z,99.90
2019-04-05T23:46:56.874Z,99.90
2019-04-05T23:49:26.685Z,99.90
2019-04-05T23:51:56.462Z,99.90
2019-04-05T23:54:26.320Z,99.90
2019-04-05T23:56:56.126Z,99.90
2019-04-05T23:59:26.075Z,99.90
